Chester, United Kingdom
Current Conditions -  °F | °C
As of 11:20 AM on Thursday 18 Dec 2014 (Local Time) from EGNR Reporting Station
Scattered Clouds Scattered Clouds  
Wind Chill: 57°   Ceiling: Unl
Heat Index: 57°   Visibility: 6mi
Dew Point: 52°   Wind: 18mph
Humidity: 82%   Direction: 230°SW
Pressure: 29.62"   Gusts: 35mph
Location:  53.19°N, 2.89°W
Report Text: EGNR 181120Z 23016G30KT 9999 FEW012 SCT020 14/11 Q1003
Loading
Personal Weather Stations






























Interactive Weather Map New forecast layout! Learn more

10-Day Weather Forecast

Advertisements
Track Severe Weather on mobile